Basin City, Washington
Current Conditions -  °F | °C
As of 9:53 AM on Thursday 23 Oct 2014 (Local Time) from KPSC Reporting Station
Broken Clouds Broken Clouds  
Wind Chill: 59°   Ceiling: 7000
Heat Index: 59°   Visibility: 10mi
Dew Point: 54°   Wind: 0mph
Humidity: 83%   Direction: NA
Pressure: 29.78"   Gusts: NA
Location:  46.5851°N, 119.156°W
Report Text: KPSC 231653Z 00000KT 10SM BKN070 BKN095 BKN110 15/12 A2978 RMK AO2 SLP085 T01500122
Loading
Personal Weather Stations






























Interactive Weather Map
Tropical Storm Tracking
New forecast layout! Learn more

10-Day Weather Forecast

Advertisements
Track Severe Weather on mobile